sensor_id;sensor_type;location;lat;lon;timestamp;pressure;altitude;pressure_sealevel;temperature;humidity
82160;BME280;71734;50.876;7.372;2023-09-12T00:01:25;98694.31;;;23.15;66.49
82160;BME280;71734;50.876;7.372;2023-09-12T00:03:51;98707.00;;;23.05;66.88
82160;BME280;71734;50.876;7.372;2023-09-12T00:06:18;98692.75;;;23.13;66.95
82160;BME280;71734;50.876;7.372;2023-09-12T00:08:44;98695.47;;;23.03;68.05
82160;BME280;71734;50.876;7.372;2023-09-12T00:11:10;98692.47;;;22.97;68.30
82160;BME280;71734;50.876;7.372;2023-09-12T00:13:37;98688.22;;;23.04;67.90
82160;BME280;71734;50.876;7.372;2023-09-12T00:16:06;98691.63;;;22.96;68.13
82160;BME280;71734;50.876;7.372;2023-09-12T00:18:32;98686.66;;;23.01;68.22
82160;BME280;71734;50.876;7.372;2023-09-12T00:21:00;98683.53;;;23.06;68.02
82160;BME280;71734;50.876;7.372;2023-09-12T00:23:27;98680.97;;;23.14;68.11
82160;BME280;71734;50.876;7.372;2023-09-12T00:25:53;98675.41;;;23.06;68.44
82160;BME280;71734;50.876;7.372;2023-09-12T00:28:20;98676.13;;;22.98;68.78
82160;BME280;71734;50.876;7.372;2023-09-12T00:30:47;98680.53;;;22.99;68.45
82160;BME280;71734;50.876;7.372;2023-09-12T00:33:15;98677.41;;;22.94;68.61
82160;BME280;71734;50.876;7.372;2023-09-12T00:35:41;98691.63;;;22.77;69.20
82160;BME280;71734;50.876;7.372;2023-09-12T00:38:08;98683.88;;;22.63;69.41
82160;BME280;71734;50.876;7.372;2023-09-12T00:40:35;98685.78;;;22.72;68.83
82160;BME280;71734;50.876;7.372;2023-09-12T00:43:03;98684.22;;;22.79;69.11
82160;BME280;71734;50.876;7.372;2023-09-12T00:45:29;98678.84;;;22.89;68.64
82160;BME280;71734;50.876;7.372;2023-09-12T00:47:57;98678.25;;;22.85;68.77
82160;BME280;71734;50.876;7.372;2023-09-12T00:50:26;98676.56;;;22.84;68.67
82160;BME280;71734;50.876;7.372;2023-09-12T00:52:53;98662.59;;;22.79;68.64
82160;BME280;71734;50.876;7.372;2023-09-12T00:55:21;98668.31;;;22.76;68.94
82160;BME280;71734;50.876;7.372;2023-09-12T00:57:47;98671.72;;;22.78;68.66
82160;BME280;71734;50.876;7.372;2023-09-12T01:00:14;98670.53;;;22.61;69.31
82160;BME280;71734;50.876;7.372;2023-09-12T01:02:43;98673.69;;;22.76;68.96
82160;BME280;71734;50.876;7.372;2023-09-12T01:05:11;98681.25;;;22.73;68.58
82160;BME280;71734;50.876;7.372;2023-09-12T01:07:40;98676.78;;;22.62;68.96
82160;BME280;71734;50.876;7.372;2023-09-12T01:10:08;98673.94;;;22.44;69.77
82160;BME280;71734;50.876;7.372;2023-09-12T01:12:34;98665.38;;;22.39;70.20
82160;BME280;71734;50.876;7.372;2023-09-12T01:15:02;98655.56;;;22.38;69.95
82160;BME280;71734;50.876;7.372;2023-09-12T01:17:31;98642.63;;;22.42;69.72
82160;BME280;71734;50.876;7.372;2023-09-12T01:19:58;98637.53;;;22.39;70.07
82160;BME280;71734;50.876;7.372;2023-09-12T01:22:45;98648.63;;;22.36;70.12
82160;BME280;71734;50.876;7.372;2023-09-12T01:25:39;98646.59;;;22.38;69.90
82160;BME280;71734;50.876;7.372;2023-09-12T01:28:11;98642.78;;;22.21;70.56
82160;BME280;71734;50.876;7.372;2023-09-12T01:30:42;98652.81;;;22.09;70.68
82160;BME280;71734;50.876;7.372;2023-09-12T01:33:08;98667.16;;;21.79;71.50
82160;BME280;71734;50.876;7.372;2023-09-12T01:35:35;98665.16;;;22.02;70.75
82160;BME280;71734;50.876;7.372;2023-09-12T01:38:01;98674.16;;;22.22;70.51
82160;BME280;71734;50.876;7.372;2023-09-12T01:40:33;98668.63;;;22.23;69.92
82160;BME280;71734;50.876;7.372;2023-09-12T01:43:03;98675.72;;;22.24;70.05
82160;BME280;71734;50.876;7.372;2023-09-12T01:45:32;98677.56;;;22.24;69.95
82160;BME280;71734;50.876;7.372;2023-09-12T01:48:00;98675.28;;;22.19;70.28
82160;BME280;71734;50.876;7.372;2023-09-12T01:50:27;98673.56;;;22.18;70.25
82160;BME280;71734;50.876;7.372;2023-09-12T01:52:54;98676.22;;;21.99;70.83
82160;BME280;71734;50.876;7.372;2023-09-12T01:55:22;98677.75;;;21.92;71.21
82160;BME280;71734;50.876;7.372;2023-09-12T01:57:49;98666.97;;;21.92;71.02
82160;BME280;71734;50.876;7.372;2023-09-12T02:00:17;98670.53;;;21.72;71.91
82160;BME280;71734;50.876;7.372;2023-09-12T02:02:45;98665.97;;;21.93;70.96
82160;BME280;71734;50.876;7.372;2023-09-12T02:05:14;98675.09;;;21.81;71.52
82160;BME280;71734;50.876;7.372;2023-09-12T02:07:44;98670.53;;;22.02;70.48
82160;BME280;71734;50.876;7.372;2023-09-12T02:10:10;98678.47;;;21.94;70.91
82160;BME280;71734;50.876;7.372;2023-09-12T02:12:37;98682.94;;;22.14;70.02
82160;BME280;71734;50.876;7.372;2023-09-12T02:15:04;98684.31;;;21.99;70.51
82160;BME280;71734;50.876;7.372;2023-09-12T02:17:31;98670.16;;;21.86;71.82
82160;BME280;71734;50.876;7.372;2023-09-12T02:19:58;98666.47;;;21.87;71.85
82160;BME280;71734;50.876;7.372;2023-09-12T02:22:25;98660.34;;;21.85;72.07
82160;BME280;71734;50.876;7.372;2023-09-12T02:24:51;98664.06;;;21.84;72.26
82160;BME280;71734;50.876;7.372;2023-09-12T02:27:17;98677.00;;;21.90;71.37
82160;BME280;71734;50.876;7.372;2023-09-12T02:29:44;98678.81;;;21.80;71.84
82160;BME280;71734;50.876;7.372;2023-09-12T02:32:10;98684.03;;;21.72;72.11
82160;BME280;71734;50.876;7.372;2023-09-12T02:34:37;98688.91;;;21.57;72.17
82160;BME280;71734;50.876;7.372;2023-09-12T02:37:04;98681.75;;;21.77;71.70
82160;BME280;71734;50.876;7.372;2023-09-12T02:39:31;98678.81;;;21.80;71.32
82160;BME280;71734;50.876;7.372;2023-09-12T02:41:57;98678.25;;;21.86;71.12
82160;BME280;71734;50.876;7.372;2023-09-12T02:44:23;98671.97;;;21.76;71.60
82160;BME280;71734;50.876;7.372;2023-09-12T02:46:50;98676.75;;;21.72;71.71
82160;BME280;71734;50.876;7.372;2023-09-12T02:49:16;98678.34;;;21.75;71.51
82160;BME280;71734;50.876;7.372;2023-09-12T02:51:43;98676.47;;;21.66;71.72
82160;BME280;71734;50.876;7.372;2023-09-12T02:54:10;98679.56;;;21.61;72.02
82160;BME280;71734;50.876;7.372;2023-09-12T02:56:37;98677.25;;;21.57;72.29
82160;BME280;71734;50.876;7.372;2023-09-12T02:59:03;98685.00;;;21.71;71.51
82160;BME280;71734;50.876;7.372;2023-09-12T03:01:30;98684.69;;;21.64;71.42
82160;BME280;71734;50.876;7.372;2023-09-12T03:03:57;98696.81;;;21.49;72.05
82160;BME280;71734;50.876;7.372;2023-09-12T03:06:23;98688.25;;;21.44;72.28
82160;BME280;71734;50.876;7.372;2023-09-12T03:08:50;98681.75;;;21.47;72.00
82160;BME280;71734;50.876;7.372;2023-09-12T03:11:18;98675.63;;;21.45;72.31
82160;BME280;71734;50.876;7.372;2023-09-12T03:13:44;98676.94;;;21.50;72.16
82160;BME280;71734;50.876;7.372;2023-09-12T03:16:11;98675.13;;;21.30;72.43
82160;BME280;71734;50.876;7.372;2023-09-12T03:18:37;98671.56;;;21.29;72.26
82160;BME280;71734;50.876;7.372;2023-09-12T03:21:04;98677.16;;;21.38;72.00
82160;BME280;71734;50.876;7.372;2023-09-12T03:23:30;98666.69;;;21.44;71.88
82160;BME280;71734;50.876;7.372;2023-09-12T03:26:00;98672.94;;;21.45;71.70
82160;BME280;71734;50.876;7.372;2023-09-12T03:28:27;98666.66;;;21.35;71.90
82160;BME280;71734;50.876;7.372;2023-09-12T03:31:03;98666.88;;;21.31;71.60
82160;BME280;71734;50.876;7.372;2023-09-12T03:33:29;98660.06;;;21.27;72.12
82160;BME280;71734;50.876;7.372;2023-09-12T03:35:56;98660.47;;;21.44;71.21
82160;BME280;71734;50.876;7.372;2023-09-12T03:38:22;98664.44;;;21.49;70.97
82160;BME280;71734;50.876;7.372;2023-09-12T03:40:49;98657.59;;;21.36;72.04
82160;BME280;71734;50.876;7.372;2023-09-12T03:43:15;98656.19;;;21.41;71.86
82160;BME280;71734;50.876;7.372;2023-09-12T03:45:43;98651.72;;;21.30;72.77
82160;BME280;71734;50.876;7.372;2023-09-12T03:48:09;98660.31;;;21.24;73.11
82160;BME280;71734;50.876;7.372;2023-09-12T03:50:35;98655.72;;;21.36;72.61
82160;BME280;71734;50.876;7.372;2023-09-12T03:53:02;98652.63;;;21.41;72.29
82160;BME280;71734;50.876;7.372;2023-09-12T03:55:31;98653.75;;;21.38;72.31
82160;BME280;71734;50.876;7.372;2023-09-12T03:58:01;98651.53;;;21.43;72.10
82160;BME280;71734;50.876;7.372;2023-09-12T04:41:50;98649.66;;;21.02;72.90
82160;BME280;71734;50.876;7.372;2023-09-12T04:47:54;98636.38;;;21.10;73.03
82160;BME280;71734;50.876;7.372;2023-09-12T04:50:30;98615.50;;;21.23;72.21
82160;BME280;71734;50.876;7.372;2023-09-12T04:53:17;98628.53;;;21.07;73.07
82160;BME280;71734;50.876;7.372;2023-09-12T04:56:04;98614.69;;;20.91;73.48
82160;BME280;71734;50.876;7.372;2023-09-12T05:19:19;98608.91;;;20.75;73.90
82160;BME280;71734;50.876;7.372;2023-09-12T05:21:59;98617.97;;;20.74;74.44
82160;BME280;71734;50.876;7.372;2023-09-12T05:24:39;98620.03;;;21.02;73.00
82160;BME280;71734;50.876;7.372;2023-09-12T05:27:08;98615.22;;;20.32;76.38
82160;BME280;71734;50.876;7.372;2023-09-12T05:29:34;98624.38;;;20.41;75.98
82160;BME280;71734;50.876;7.372;2023-09-12T05:32:01;98613.44;;;20.54;75.18
82160;BME280;71734;50.876;7.372;2023-09-12T05:34:29;98621.97;;;20.79;74.34
82160;BME280;71734;50.876;7.372;2023-09-12T05:36:56;98626.00;;;20.85;74.12
82160;BME280;71734;50.876;7.372;2023-09-12T05:39:22;98632.91;;;20.78;74.75
82160;BME280;71734;50.876;7.372;2023-09-12T05:41:49;98642.28;;;21.04;73.21
82160;BME280;71734;50.876;7.372;2023-09-12T05:44:15;98660.69;;;20.99;74.36
82160;BME280;71734;50.876;7.372;2023-09-12T05:46:44;98686.97;;;20.86;74.84
82160;BME280;71734;50.876;7.372;2023-09-12T05:49:10;98691.63;;;20.84;75.11
82160;BME280;71734;50.876;7.372;2023-09-12T05:51:38;98687.69;;;20.88;74.97
82160;BME280;71734;50.876;7.372;2023-09-12T05:54:05;98691.78;;;20.82;75.12
82160;BME280;71734;50.876;7.372;2023-09-12T05:56:31;98694.03;;;20.87;75.00
82160;BME280;71734;50.876;7.372;2023-09-12T05:58:58;98688.44;;;20.90;74.50
82160;BME280;71734;50.876;7.372;2023-09-12T06:01:27;98702.34;;;20.95;74.48
82160;BME280;71734;50.876;7.372;2023-09-12T06:03:53;98712.28;;;20.95;74.45
82160;BME280;71734;50.876;7.372;2023-09-12T06:06:20;98704.25;;;21.04;74.24
82160;BME280;71734;50.876;7.372;2023-09-12T06:08:47;98700.00;;;21.02;74.30
82160;BME280;71734;50.876;7.372;2023-09-12T06:11:14;98708.13;;;21.11;73.40
82160;BME280;71734;50.876;7.372;2023-09-12T06:13:41;98708.53;;;20.86;74.34
82160;BME280;71734;50.876;7.372;2023-09-12T06:16:11;98709.03;;;20.80;74.46
82160;BME280;71734;50.876;7.372;2023-09-12T06:18:37;98697.81;;;20.96;73.99
82160;BME280;71734;50.876;7.372;2023-09-12T06:21:04;98707.22;;;21.01;73.69
82160;BME280;71734;50.876;7.372;2023-09-12T06:23:33;98714.78;;;21.18;73.50
82160;BME280;71734;50.876;7.372;2023-09-12T06:26:01;98718.72;;;21.14;74.10
82160;BME280;71734;50.876;7.372;2023-09-12T06:28:29;98713.91;;;21.18;73.71
82160;BME280;71734;50.876;7.372;2023-09-12T06:30:56;98711.06;;;21.19;73.59
82160;BME280;71734;50.876;7.372;2023-09-12T06:33:23;98714.03;;;21.16;73.33
82160;BME280;71734;50.876;7.372;2023-09-12T06:35:50;98725.59;;;20.96;74.54
82160;BME280;71734;50.876;7.372;2023-09-12T06:38:18;98717.31;;;20.88;74.75
82160;BME280;71734;50.876;7.372;2023-09-12T06:40:44;98722.44;;;20.91;75.07
82160;BME280;71734;50.876;7.372;2023-09-12T06:43:13;98715.56;;;20.98;74.90
82160;BME280;71734;50.876;7.372;2023-09-12T06:45:40;98714.06;;;21.05;74.12
82160;BME280;71734;50.876;7.372;2023-09-12T06:48:06;98703.78;;;20.99;74.02
82160;BME280;71734;50.876;7.372;2023-09-12T06:50:33;98701.81;;;21.12;73.79
82160;BME280;71734;50.876;7.372;2023-09-12T06:52:59;98707.06;;;21.14;73.38
82160;BME280;71734;50.876;7.372;2023-09-12T06:55:28;98719.19;;;21.08;74.09
82160;BME280;71734;50.876;7.372;2023-09-12T06:57:54;98722.03;;;21.07;74.62
82160;BME280;71734;50.876;7.372;2023-09-12T07:00:22;98712.63;;;21.01;74.67
82160;BME280;71734;50.876;7.372;2023-09-12T07:02:49;98715.19;;;21.03;74.66
82160;BME280;71734;50.876;7.372;2023-09-12T07:05:16;98727.00;;;21.11;74.52
82160;BME280;71734;50.876;7.372;2023-09-12T07:07:42;98719.69;;;21.13;74.68
82160;BME280;71734;50.876;7.372;2023-09-12T07:10:09;98724.16;;;21.24;74.60
82160;BME280;71734;50.876;7.372;2023-09-12T07:12:35;98730.69;;;21.21;74.22
82160;BME280;71734;50.876;7.372;2023-09-12T07:15:02;98720.56;;;21.35;73.03
82160;BME280;71734;50.876;7.372;2023-09-12T07:17:30;98715.63;;;21.40;73.08
82160;BME280;71734;50.876;7.372;2023-09-12T07:19:57;98717.47;;;21.39;72.98
82160;BME280;71734;50.876;7.372;2023-09-12T07:22:23;98728.97;;;21.62;71.93
82160;BME280;71734;50.876;7.372;2023-09-12T07:24:51;98726.00;;;21.65;72.14
82160;BME280;71734;50.876;7.372;2023-09-12T07:27:17;98718.81;;;21.75;71.74
82160;BME280;71734;50.876;7.372;2023-09-12T07:29:44;98717.28;;;21.82;71.71
82160;BME280;71734;50.876;7.372;2023-09-12T07:32:10;98718.25;;;21.92;71.13
82160;BME280;71734;50.876;7.372;2023-09-12T07:34:38;98710.44;;;21.99;70.94
82160;BME280;71734;50.876;7.372;2023-09-12T07:37:04;98711.81;;;21.93;71.31
82160;BME280;71734;50.876;7.372;2023-09-12T07:39:30;98723.66;;;21.81;71.65
82160;BME280;71734;50.876;7.372;2023-09-12T07:41:57;98721.16;;;21.89;71.24
82160;BME280;71734;50.876;7.372;2023-09-12T07:44:23;98721.53;;;22.05;70.89
82160;BME280;71734;50.876;7.372;2023-09-12T07:46:50;98716.47;;;22.21;70.34
82160;BME280;71734;50.876;7.372;2023-09-12T07:49:16;98707.13;;;22.25;70.02
82160;BME280;71734;50.876;7.372;2023-09-12T07:51:44;98713.41;;;22.36;69.84
82160;BME280;71734;50.876;7.372;2023-09-12T07:54:10;98719.56;;;22.07;70.33
82160;BME280;71734;50.876;7.372;2023-09-12T07:56:36;98715.66;;;21.70;71.77
82160;BME280;71734;50.876;7.372;2023-09-12T07:59:03;98712.88;;;21.81;71.45
82160;BME280;71734;50.876;7.372;2023-09-12T08:01:29;98719.88;;;22.14;70.36
82160;BME280;71734;50.876;7.372;2023-09-12T08:03:56;98733.19;;;22.46;69.27
82160;BME280;71734;50.876;7.372;2023-09-12T08:06:22;98730.88;;;22.81;67.95
82160;BME280;71734;50.876;7.372;2023-09-12T08:08:51;98733.16;;;23.05;67.45
82160;BME280;71734;50.876;7.372;2023-09-12T08:11:17;98728.59;;;23.15;67.26
82160;BME280;71734;50.876;7.372;2023-09-12T08:13:48;98737.72;;;23.24;66.74
82160;BME280;71734;50.876;7.372;2023-09-12T08:16:14;98730.16;;;23.37;66.97
82160;BME280;71734;50.876;7.372;2023-09-12T08:18:41;98737.28;;;23.38;67.01
82160;BME280;71734;50.876;7.372;2023-09-12T08:21:08;98737.72;;;23.62;65.81
82160;BME280;71734;50.876;7.372;2023-09-12T08:23:34;98734.50;;;23.86;65.09
82160;BME280;71734;50.876;7.372;2023-09-12T08:26:05;98722.19;;;24.01;64.46
82160;BME280;71734;50.876;7.372;2023-09-12T08:28:34;98726.97;;;24.26;64.05
82160;BME280;71734;50.876;7.372;2023-09-12T08:31:03;98716.34;;;24.05;64.19
82160;BME280;71734;50.876;7.372;2023-09-12T08:33:30;98719.69;;;23.90;64.85
82160;BME280;71734;50.876;7.372;2023-09-12T08:35:56;98726.91;;;23.99;64.97
82160;BME280;71734;50.876;7.372;2023-09-12T08:38:23;98719.66;;;23.99;65.20
82160;BME280;71734;50.876;7.372;2023-09-12T08:40:49;98726.31;;;24.05;64.55
82160;BME280;71734;50.876;7.372;2023-09-12T08:43:17;98733.75;;;24.03;63.88
82160;BME280;71734;50.876;7.372;2023-09-12T08:45:44;98729.44;;;24.10;63.33
82160;BME280;71734;50.876;7.372;2023-09-12T08:48:13;98724.75;;;24.02;63.76
82160;BME280;71734;50.876;7.372;2023-09-12T08:50:41;98730.63;;;23.88;65.65
82160;BME280;71734;50.876;7.372;2023-09-12T08:53:07;98731.28;;;24.09;64.33
82160;BME280;71734;50.876;7.372;2023-09-12T08:55:35;98731.47;;;24.45;63.26
82160;BME280;71734;50.876;7.372;2023-09-12T08:58:03;98726.31;;;24.42;63.60
82160;BME280;71734;50.876;7.372;2023-09-12T09:00:31;98729.56;;;24.73;63.18
82160;BME280;71734;50.876;7.372;2023-09-12T09:02:58;98738.81;;;24.52;62.34
82160;BME280;71734;50.876;7.372;2023-09-12T09:05:26;98739.69;;;24.53;62.69
82160;BME280;71734;50.876;7.372;2023-09-12T09:07:54;98741.00;;;24.49;62.82
82160;BME280;71734;50.876;7.372;2023-09-12T09:10:22;98737.59;;;25.10;61.34
82160;BME280;71734;50.876;7.372;2023-09-12T09:12:48;98744.53;;;25.65;60.93
82160;BME280;71734;50.876;7.372;2023-09-12T09:15:25;98744.03;;;25.87;59.21
82160;BME280;71734;50.876;7.372;2023-09-12T09:17:55;98754.03;;;25.87;58.01
82160;BME280;71734;50.876;7.372;2023-09-12T09:20:22;98749.69;;;26.20;57.77
82160;BME280;71734;50.876;7.372;2023-09-12T09:22:59;98751.56;;;25.76;58.58
82160;BME280;71734;50.876;7.372;2023-09-12T09:25:26;98750.13;;;25.11;59.90
82160;BME280;71734;50.876;7.372;2023-09-12T09:27:52;98744.72;;;25.46;59.31
82160;BME280;71734;50.876;7.372;2023-09-12T09:30:38;98748.09;;;25.48;59.65
82160;BME280;71734;50.876;7.372;2023-09-12T09:33:06;98741.28;;;25.79;59.51
82160;BME280;71734;50.876;7.372;2023-09-12T09:35:33;98748.38;;;26.06;57.47
82160;BME280;71734;50.876;7.372;2023-09-12T09:38:00;98750.28;;;26.14;58.24
82160;BME280;71734;50.876;7.372;2023-09-12T09:40:27;98746.25;;;26.18;57.52
82160;BME280;71734;50.876;7.372;2023-09-12T09:42:53;98741.88;;;26.25;57.74
82160;BME280;71734;50.876;7.372;2023-09-12T09:45:19;98747.19;;;26.09;58.64
82160;BME280;71734;50.876;7.372;2023-09-12T09:47:46;98746.81;;;25.96;60.05
82160;BME280;71734;50.876;7.372;2023-09-12T09:50:15;98746.75;;;25.87;58.98
82160;BME280;71734;50.876;7.372;2023-09-12T09:52:42;98739.50;;;25.96;59.01
82160;BME280;71734;50.876;7.372;2023-09-12T09:55:19;98738.38;;;25.81;58.23
82160;BME280;71734;50.876;7.372;2023-09-12T09:57:45;98751.53;;;25.15;59.19
82160;BME280;71734;50.876;7.372;2023-09-12T10:00:28;98742.72;;;25.13;59.67
82160;BME280;71734;50.876;7.372;2023-09-12T10:02:55;98749.38;;;25.01;60.67
82160;BME280;71734;50.876;7.372;2023-09-12T10:05:23;98748.59;;;25.26;61.59
82160;BME280;71734;50.876;7.372;2023-09-12T10:07:52;98758.53;;;25.35;63.13
82160;BME280;71734;50.876;7.372;2023-09-12T10:10:24;98747.97;;;25.32;62.68
82160;BME280;71734;50.876;7.372;2023-09-12T10:12:57;98754.88;;;25.26;63.40
82160;BME280;71734;50.876;7.372;2023-09-12T10:15:28;98751.16;;;25.10;64.73
82160;BME280;71734;50.876;7.372;2023-09-12T10:17:57;98761.25;;;25.17;64.21
82160;BME280;71734;50.876;7.372;2023-09-12T10:20:33;98755.75;;;25.27;63.53
82160;BME280;71734;50.876;7.372;2023-09-12T10:23:06;98759.31;;;25.10;64.11
82160;BME280;71734;50.876;7.372;2023-09-12T10:25:36;98749.38;;;25.01;63.99
82160;BME280;71734;50.876;7.372;2023-09-12T10:28:03;98742.72;;;25.30;64.19
82160;BME280;71734;50.876;7.372;2023-09-12T10:30:31;98740.53;;;25.34;62.59
82160;BME280;71734;50.876;7.372;2023-09-12T10:33:01;98740.44;;;25.61;61.62
82160;BME280;71734;50.876;7.372;2023-09-12T10:35:30;98738.56;;;25.79;61.64
82160;BME280;71734;50.876;7.372;2023-09-12T10:38:00;98734.66;;;26.08;60.90
82160;BME280;71734;50.876;7.372;2023-09-12T10:40:29;98740.94;;;26.42;60.09
82160;BME280;71734;50.876;7.372;2023-09-12T10:43:02;98742.56;;;26.61;57.96
82160;BME280;71734;50.876;7.372;2023-09-12T10:45:31;98739.03;;;26.76;58.48
82160;BME280;71734;50.876;7.372;2023-09-12T10:47:58;98727.41;;;27.16;57.45
82160;BME280;71734;50.876;7.372;2023-09-12T10:50:24;98736.28;;;27.83;56.24
82160;BME280;71734;50.876;7.372;2023-09-12T10:52:52;98731.25;;;28.35;54.59
82160;BME280;71734;50.876;7.372;2023-09-12T10:55:21;98739.31;;;28.59;52.22
82160;BME280;71734;50.876;7.372;2023-09-12T10:58:00;98734.19;;;28.95;51.94
82160;BME280;71734;50.876;7.372;2023-09-12T11:00:28;98734.09;;;29.12;50.92
82160;BME280;71734;50.876;7.372;2023-09-12T11:02:57;98727.66;;;29.04;49.14
82160;BME280;71734;50.876;7.372;2023-09-12T11:05:38;98733.81;;;28.68;52.89
82160;BME280;71734;50.876;7.372;2023-09-12T11:08:26;98735.44;;;27.91;53.88
82160;BME280;71734;50.876;7.372;2023-09-12T11:11:16;98728.78;;;27.45;56.66
82160;BME280;71734;50.876;7.372;2023-09-12T11:13:45;98730.34;;;27.47;56.46
82160;BME280;71734;50.876;7.372;2023-09-12T11:16:17;98731.66;;;27.19;57.57
82160;BME280;71734;50.876;7.372;2023-09-12T11:19:12;98730.16;;;27.24;57.68
82160;BME280;71734;50.876;7.372;2023-09-12T11:21:39;98730.19;;;27.49;55.02
82160;BME280;71734;50.876;7.372;2023-09-12T11:24:07;98734.09;;;27.54;55.80
82160;BME280;71734;50.876;7.372;2023-09-12T11:26:55;98728.66;;;27.70;55.66
82160;BME280;71734;50.876;7.372;2023-09-12T11:29:36;98730.19;;;27.57;56.57
82160;BME280;71734;50.876;7.372;2023-09-12T11:32:04;98727.59;;;27.71;55.30
82160;BME280;71734;50.876;7.372;2023-09-12T11:34:36;98729.75;;;28.08;54.61
82160;BME280;71734;50.876;7.372;2023-09-12T11:37:03;98726.41;;;27.90;55.02
82160;BME280;71734;50.876;7.372;2023-09-12T11:39:32;98726.19;;;28.24;54.70
82160;BME280;71734;50.876;7.372;2023-09-12T11:42:00;98720.41;;;28.03;54.08
82160;BME280;71734;50.876;7.372;2023-09-12T11:44:28;98736.19;;;28.32;53.35
82160;BME280;71734;50.876;7.372;2023-09-12T11:46:57;98733.28;;;28.33;53.63
82160;BME280;71734;50.876;7.372;2023-09-12T11:52:15;98735.28;;;28.47;54.00
82160;BME280;71734;50.876;7.372;2023-09-12T11:54:47;98727.34;;;28.69;52.27
82160;BME280;71734;50.876;7.372;2023-09-12T11:57:14;98724.28;;;28.72;53.41
82160;BME280;71734;50.876;7.372;2023-09-12T11:59:43;98723.16;;;28.89;52.02
82160;BME280;71734;50.876;7.372;2023-09-12T12:02:14;98716.53;;;29.14;52.07
82160;BME280;71734;50.876;7.372;2023-09-12T12:04:41;98723.31;;;29.18;52.11
82160;BME280;71734;50.876;7.372;2023-09-12T12:07:11;98712.13;;;29.28;51.11
82160;BME280;71734;50.876;7.372;2023-09-12T12:09:37;98721.34;;;29.27;51.53
82160;BME280;71734;50.876;7.372;2023-09-12T12:12:11;98713.75;;;29.22;51.59
82160;BME280;71734;50.876;7.372;2023-09-12T12:14:41;98719.44;;;28.82;52.82
82160;BME280;71734;50.876;7.372;2023-09-12T12:17:10;98714.44;;;28.93;51.61
82160;BME280;71734;50.876;7.372;2023-09-12T12:19:37;98721.53;;;29.33;49.62
82160;BME280;71734;50.876;7.372;2023-09-12T12:22:04;98716.31;;;29.46;48.89
82160;BME280;71734;50.876;7.372;2023-09-12T12:24:44;98718.97;;;29.32;50.52
82160;BME280;71734;50.876;7.372;2023-09-12T12:27:14;98705.53;;;29.30;49.68
82160;BME280;71734;50.876;7.372;2023-09-12T12:29:41;98707.31;;;29.38;49.44
82160;BME280;71734;50.876;7.372;2023-09-12T12:32:10;98713.63;;;29.38;50.45
82160;BME280;71734;50.876;7.372;2023-09-12T12:34:39;98703.53;;;29.16;51.01
82160;BME280;71734;50.876;7.372;2023-09-12T12:37:05;98696.25;;;29.08;51.04
82160;BME280;71734;50.876;7.372;2023-09-12T12:39:32;98716.75;;;29.27;51.04
82160;BME280;71734;50.876;7.372;2023-09-12T12:41:59;98710.06;;;29.38;51.48
82160;BME280;71734;50.876;7.372;2023-09-12T12:44:33;98697.56;;;28.90;49.45
82160;BME280;71734;50.876;7.372;2023-09-12T12:47:06;98689.81;;;28.79;53.21
82160;BME280;71734;50.876;7.372;2023-09-12T12:49:36;98704.78;;;28.83;54.05
82160;BME280;71734;50.876;7.372;2023-09-12T12:52:03;98695.63;;;28.98;50.58
82160;BME280;71734;50.876;7.372;2023-09-12T12:54:37;98695.16;;;28.95;52.30
82160;BME280;71734;50.876;7.372;2023-09-12T12:57:03;98693.81;;;28.91;51.32
82160;BME280;71734;50.876;7.372;2023-09-12T12:59:30;98691.13;;;28.83;51.78
82160;BME280;71734;50.876;7.372;2023-09-12T13:02:02;98684.41;;;28.62;50.21
82160;BME280;71734;50.876;7.372;2023-09-12T13:04:35;98693.00;;;28.51;51.71
82160;BME280;71734;50.876;7.372;2023-09-12T13:07:01;98687.47;;;28.29;53.78
82160;BME280;71734;50.876;7.372;2023-09-12T13:09:28;98684.94;;;28.27;53.30
82160;BME280;71734;50.876;7.372;2023-09-12T13:11:54;98675.09;;;28.18;53.25
82160;BME280;71734;50.876;7.372;2023-09-12T13:14:21;98684.66;;;27.98;53.11
82160;BME280;71734;50.876;7.372;2023-09-12T13:16:55;98678.91;;;27.85;52.27
82160;BME280;71734;50.876;7.372;2023-09-12T13:19:22;98670.75;;;27.77;54.48
82160;BME280;71734;50.876;7.372;2023-09-12T13:21:49;98668.03;;;27.77;54.02
82160;BME280;71734;50.876;7.372;2023-09-12T13:24:15;98666.13;;;27.85;53.97
82160;BME280;71734;50.876;7.372;2023-09-12T13:26:49;98664.66;;;27.66;54.05
82160;BME280;71734;50.876;7.372;2023-09-12T13:29:15;98663.63;;;27.59;54.55
82160;BME280;71734;50.876;7.372;2023-09-12T13:31:42;98665.00;;;27.63;53.83
82160;BME280;71734;50.876;7.372;2023-09-12T13:34:09;98663.31;;;27.62;53.88
82160;BME280;71734;50.876;7.372;2023-09-12T13:36:37;98653.09;;;27.56;55.44
82160;BME280;71734;50.876;7.372;2023-09-12T13:39:03;98662.81;;;27.51;55.18
82160;BME280;71734;50.876;7.372;2023-09-12T13:41:31;98661.75;;;27.60;54.54
82160;BME280;71734;50.876;7.372;2023-09-12T13:43:58;98659.03;;;27.44;55.31
82160;BME280;71734;50.876;7.372;2023-09-12T13:46:24;98662.28;;;27.39;55.00
82160;BME280;71734;50.876;7.372;2023-09-12T13:48:51;98655.81;;;27.08;54.89
82160;BME280;71734;50.876;7.372;2023-09-12T13:51:17;98658.19;;;26.95;54.95
82160;BME280;71734;50.876;7.372;2023-09-12T13:53:45;98661.41;;;26.90;53.58
82160;BME280;71734;50.876;7.372;2023-09-12T13:56:11;98653.75;;;26.77;56.61
82160;BME280;71734;50.876;7.372;2023-09-12T13:58:37;98660.19;;;26.76;56.03
82160;BME280;71734;50.876;7.372;2023-09-12T14:01:04;98662.22;;;26.74;55.92
82160;BME280;71734;50.876;7.372;2023-09-12T14:03:30;98656.13;;;26.80;56.46
82160;BME280;71734;50.876;7.372;2023-09-12T14:05:57;98659.22;;;26.86;57.00
82160;BME280;71734;50.876;7.372;2023-09-12T14:08:23;98656.53;;;26.94;55.97
82160;BME280;71734;50.876;7.372;2023-09-12T14:10:51;98646.81;;;26.99;56.80
82160;BME280;71734;50.876;7.372;2023-09-12T14:13:18;98651.06;;;26.94;57.08
82160;BME280;71734;50.876;7.372;2023-09-12T14:15:44;98657.69;;;27.07;55.86